Healdton, OK (73438)

3:46 AM CST on December 03, 2016 (GMT -0600)
Carter County Dist 2 | | Change Station

Elev 933 ft 34.25 °N, 97.50 °W | Updated 41 seconds ago

Rain
Rain
46.4 °F
Feels Like 46 °F
N
3.0
Wind Variable Wind from NNE
Gusts 4.0 mph

Today
High -- | Low -- °F
--% Chance of Precip.
Yesterday
High -- | Low -- °F
Precip. -- in
Pressure 30.17 in
Visibility 10.0 miles
Clouds Overcast 8000 ft
Windchill 46 °F
Dew Point 43 °F
Humidity 87%
Rainfall 0.00 in
Snow Depth Not available.
7:19 AM 5:19 PM
Waxing Crescent, 14% visible
METAR K1F0 030935Z AUTO 07005KT 10SM OVC080 08/05 A3017 RMK AO2
Pressure 30.17 in
Visibility 10.0 miles
Clouds Overcast 8000 ft
Windchill 46 °F
Dew Point 43 °F
Humidity 87%
Rainfall 0.00 in
Snow Depth Not available.
7:19 AM 5:19 PM
Waxing Crescent, 14% visible
METAR K1F0 030935Z AUTO 07005KT 10SM OVC080 08/05 A3017 RMK AO2

10-Day Weather Forecast

Almanac

Astronomy

Dec. 03, 2016 Rise Set
Actual Time
Civil Twilight
Nautical Twilight
Astronomical Twilight
Moon
Length of Visible Light
Length of Day
Tomorrow will be .
, % of the Moon is Illuminated

Today's Extremes

State Highs State Lows

Community

WunderPhotos

Upload Photos

1,955,434 photos uploaded!

WunderBlog® & News

Nearby

Air Quality

  Air Quality AQ Index Pollutant
Not available.

Snow Depth

Station Depth Elevation

Earthquake Activity

City Distance Mag. Time & Date
Minimum magnitude displayed is 2.5.

Coastal Water Temperatures

Place Temperature

Stations

Nearby Weather Stations

Station Location Temp. Windchill Dew Point Humidity Wind Precip. Elev Updated Type
                   

Watches & Warnings

There are currently no watches in effect.